Time;durP1;ratioP1;P1;durP2;ratioP2;P2;SDS_P1;SDS_P2;PMS_P1;PMS_P2;Temp;Humidity;BMP_temperature;BMP_pressure;BME280_temperature;BME280_humidity;BME280_pressure;Samples;Min_cycle;Max_cycle;Signal;HPM_P1;HPM_P2
2024/02/01 00:00:08;;;;;;;12.80;9.40;;;;;;;4.84;97.98;101303.29;106643;1253;101981;-79
2024/02/01 00:03:13;;;;;;;12.70;7.90;;;;;;;4.82;98.20;101294.30;106505;1260;101442;-79
2024/02/01 00:05:59;;;;;;;12.10;8.30;;;;;;;4.80;98.18;101291.05;106525;1254;98568;-79
2024/02/01 00:08:45;;;;;;;13.50;8.90;;;;;;;4.80;98.29;101289.86;106373;1254;97971;-79
2024/02/01 00:11:30;;;;;;;12.80;9.00;;;;;;;4.80;98.48;101280.64;106487;1255;97962;-79
2024/02/01 00:14:16;;;;;;;14.80;9.30;;;;;;;4.81;98.44;101269.80;106581;1257;102701;-79
2024/02/01 00:17:02;;;;;;;13.60;9.60;;;;;;;4.80;98.47;101264.01;106632;1254;99831;-79
2024/02/01 00:19:47;;;;;;;17.20;10.30;;;;;;;4.80;98.46;101255.30;106511;1258;97963;-79
2024/02/01 00:22:33;;;;;;;12.70;9.90;;;;;;;4.80;98.39;101255.88;105908;1260;97990;-79
2024/02/01 00:25:19;;;;;;;10.60;8.50;;;;;;;4.80;98.42;101251.27;106329;1254;97914;-79
2024/02/01 00:28:06;;;;;;;15.00;9.30;;;;;;;4.80;98.60;101250.03;106075;1254;101456;-79
2024/02/01 00:30:52;;;;;;;15.70;8.90;;;;;;;4.80;98.75;101246.10;105705;1255;99176;-79
2024/02/01 00:33:37;;;;;;;12.40;8.60;;;;;;;4.82;98.82;101234.27;105857;1260;98663;-78
2024/02/01 00:36:23;;;;;;;13.50;8.50;;;;;;;4.84;99.04;101226.17;106518;1254;97854;-79
2024/02/01 00:39:08;;;;;;;14.20;8.30;;;;;;;4.84;99.13;101221.73;106506;1254;98470;-79
2024/02/01 00:41:54;;;;;;;11.40;8.20;;;;;;;4.83;99.06;101210.44;106263;1259;102528;-78
2024/02/01 00:44:40;;;;;;;15.10;9.00;;;;;;;4.82;98.96;101206.89;106507;1254;99145;-78
2024/02/01 00:47:26;;;;;;;15.90;9.60;;;;;;;4.79;98.97;101196.67;106398;1254;98502;-78
2024/02/01 00:50:11;;;;;;;14.20;9.10;;;;;;;4.78;99.18;101188.44;105939;1257;97984;-79
2024/02/01 00:52:57;;;;;;;15.00;9.40;;;;;;;4.77;99.13;101179.85;106378;1254;97844;-80
2024/02/01 00:55:42;;;;;;;12.40;9.00;;;;;;;4.74;98.78;101179.92;106433;1258;101323;-80
2024/02/01 00:58:28;;;;;;;14.70;8.50;;;;;;;4.71;98.10;101172.43;106931;1254;99380;-80
2024/02/01 01:01:13;;;;;;;15.40;10.00;;;;;;;4.68;98.06;101168.42;107104;1258;99128;-81
2024/02/01 01:03:59;;;;;;;14.10;9.60;;;;;;;4.67;98.11;101166.92;107096;1254;99202;-79
2024/02/01 01:06:44;;;;;;;14.20;9.80;;;;;;;4.67;97.81;101161.61;106967;1254;97157;-80
2024/02/01 01:09:30;;;;;;;15.70;9.70;;;;;;;4.66;97.83;101154.59;107074;1254;101369;-80
2024/02/01 01:12:15;;;;;;;13.90;8.70;;;;;;;4.68;97.75;101149.35;107116;1254;99129;-80
2024/02/01 01:15:02;;;;;;;14.50;9.30;;;;;;;4.69;97.54;101145.67;107136;1254;98583;-80
2024/02/01 01:17:48;;;;;;;12.60;9.40;;;;;;;4.71;97.30;101138.98;106985;1258;97833;-81
2024/02/01 01:20:33;;;;;;;15.00;10.50;;;;;;;4.71;97.04;101127.83;106865;1254;97891;-80
2024/02/01 01:23:19;;;;;;;15.40;10.40;;;;;;;4.70;96.76;101129.16;106823;1254;101318;-79
2024/02/01 01:26:05;;;;;;;14.20;9.80;;;;;;;4.69;96.91;101126.40;106883;1254;100414;-78
2024/02/01 01:28:50;;;;;;;15.20;10.20;;;;;;;4.69;96.91;101117.90;106884;1257;97903;-79
2024/02/01 01:31:36;;;;;;;12.20;9.10;;;;;;;4.71;96.90;101115.34;107067;1254;97864;-80
2024/02/01 01:34:21;;;;;;;14.90;11.10;;;;;;;4.71;96.67;101108.55;106913;1254;97950;-80
2024/02/01 01:37:07;;;;;;;15.10;10.50;;;;;;;4.73;96.55;101113.34;107014;1254;101315;-79
2024/02/01 01:39:53;;;;;;;15.60;11.80;;;;;;;4.74;96.51;101106.05;107051;1258;99143;-80
2024/02/01 01:42:38;;;;;;;13.30;10.00;;;;;;;4.72;96.19;101102.10;107089;1254;97877;-80
2024/02/01 01:45:23;;;;;;;15.60;11.50;;;;;;;4.67;95.92;101098.96;106963;1254;98398;-80
2024/02/01 01:48:09;;;;;;;17.50;11.60;;;;;;;4.66;95.82;101095.91;107181;1254;97983;-80
2024/02/01 01:50:55;;;;;;;15.90;11.30;;;;;;;4.66;96.10;101092.70;107120;1258;101303;-80
2024/02/01 01:53:43;;;;;;;17.70;12.10;;;;;;;4.67;95.83;101089.83;107056;1254;99091;-80
2024/02/01 01:56:31;;;;;;;18.90;11.40;;;;;;;4.66;96.22;101085.70;107083;1254;97796;-80
2024/02/01 01:59:18;;;;;;;17.30;11.50;;;;;;;4.67;96.24;101083.66;107070;1257;97955;-79
2024/02/01 02:02:05;;;;;;;17.40;11.30;;;;;;;4.67;96.02;101086.45;106083;1254;97866;-79
2024/02/01 02:04:51;;;;;;;16.70;11.70;;;;;;;4.67;95.64;101080.48;106637;1254;102121;-78
2024/02/01 02:07:40;;;;;;;16.10;11.30;;;;;;;4.65;95.50;101080.81;106525;1254;100354;-79
2024/02/01 02:10:25;;;;;;;16.20;11.50;;;;;;;4.65;95.70;101074.96;106483;1254;99304;-78
2024/02/01 02:13:11;;;;;;;18.70;11.60;;;;;;;4.65;95.82;101071.39;106853;1258;97889;-80
2024/02/01 02:15:57;;;;;;;15.80;10.40;;;;;;;4.66;95.87;101075.94;107057;1254;99662;-79
2024/02/01 02:18:43;;;;;;;16.30;10.70;;;;;;;4.66;95.94;101073.14;106922;1254;103100;-81
2024/02/01 02:21:29;;;;;;;16.00;10.60;;;;;;;4.66;95.90;101065.34;106889;1254;99147;-80
2024/02/01 02:24:16;;;;;;;17.80;11.80;;;;;;;4.63;95.86;101063.96;107084;1254;97948;-80
2024/02/01 02:27:03;;;;;;;17.50;11.50;;;;;;;4.62;95.81;101062.51;106999;1254;97810;-79
2024/02/01 02:29:49;;;;;;;18.20;11.90;;;;;;;4.61;96.04;101055.34;108125;1254;96276;-78
2024/02/01 02:32:35;;;;;;;18.80;11.50;;;;;;;4.59;96.02;101051.41;107208;1253;102668;-80
2024/02/01 02:35:21;;;;;;;16.20;11.30;;;;;;;4.59;96.20;101044.01;106986;1254;99130;-80
2024/02/01 02:38:06;;;;;;;16.30;11.80;;;;;;;4.60;96.38;101038.46;106530;1253;97980;-80
2024/02/01 02:40:52;;;;;;;19.20;12.50;;;;;;;4.59;96.18;101031.48;106881;1258;97973;-79
2024/02/01 02:43:37;;;;;;;17.90;11.60;;;;;;;4.57;96.27;101023.66;106930;1254;99072;-80
2024/02/01 02:46:25;;;;;;;20.40;13.00;;;;;;;4.57;96.62;101015.23;107092;1258;101371;-80
2024/02/01 02:49:11;;;;;;;20.20;12.70;;;;;;;4.55;96.63;101013.98;106961;1254;99109;-80
2024/02/01 02:51:56;;;;;;;19.50;12.20;;;;;;;4.54;96.69;101000.61;107005;1258;97770;-79
2024/02/01 02:54:42;;;;;;;22.20;13.70;;;;;;;4.55;96.87;100988.86;107056;1254;99351;-79
2024/02/01 02:57:28;;;;;;;21.50;14.70;;;;;;;4.55;96.93;100982.02;107081;1252;97900;-80
2024/02/01 03:00:18;;;;;;;21.80;14.40;;;;;;;4.54;97.09;100981.84;106961;1254;101370;-80
2024/02/01 03:03:04;;;;;;;23.50;15.00;;;;;;;4.53;97.14;100977.85;107021;1254;99115;-80
2024/02/01 03:05:49;;;;;;;22.20;13.50;;;;;;;4.53;97.15;100977.02;107114;1254;97957;-80
2024/02/01 03:08:39;;;;;;;21.00;13.40;;;;;;;4.53;97.29;100967.60;107071;1254;97882;-81
2024/02/01 03:11:25;;;;;;;21.40;14.20;;;;;;;4.52;97.37;100960.67;107082;1254;96521;-81
2024/02/01 03:14:11;;;;;;;22.00;14.20;;;;;;;4.51;97.32;100954.38;107245;1259;101599;-80
2024/02/01 03:16:56;;;;;;;22.60;14.50;;;;;;;4.50;97.49;100955.52;107176;1254;100392;-80
2024/02/01 03:19:43;;;;;;;20.60;14.60;;;;;;;4.49;97.37;100948.54;107071;1254;98970;-81
2024/02/01 03:22:29;;;;;;;24.80;14.80;;;;;;;4.49;97.46;100942.92;106313;1258;97952;-78
2024/02/01 03:25:15;;;;;;;21.00;14.40;;;;;;;4.49;97.53;100946.08;106044;1257;97960;-78
2024/02/01 03:28:03;;;;;;;26.20;15.60;;;;;;;4.49;97.66;100943.06;107123;1254;101412;-80
2024/02/01 03:30:49;;;;;;;22.20;14.50;;;;;;;4.49;97.67;100936.53;107464;1253;252691;-81
2024/02/01 03:33:38;;;;;;;26.20;15.50;;;;;;;4.50;97.65;100935.08;107088;1259;98009;-80
2024/02/01 03:36:24;;;;;;;25.80;15.00;;;;;;;4.49;97.51;100932.78;106983;1256;95943;-80
2024/02/01 03:39:25;;;;;;;20.40;14.40;;;;;;;4.50;97.54;100925.70;106911;1254;97230;-79
2024/02/01 03:42:12;;;;;;;27.10;15.50;;;;;;;4.49;97.63;100918.35;107114;1254;101985;-79
2024/02/01 03:44:57;;;;;;;23.60;15.40;;;;;;;4.48;97.55;100916.31;106648;1254;99199;-81
2024/02/01 03:47:46;;;;;;;26.90;16.30;;;;;;;4.48;97.48;100909.23;106803;1254;97951;-78
2024/02/01 03:50:38;;;;;;;26.60;15.70;;;;;;;4.49;97.46;100904.36;106451;1254;98852;-79
2024/02/01 03:53:23;;;;;;;24.40;14.80;;;;;;;4.49;97.55;100903.10;107447;1254;97781;-79
2024/02/01 03:56:08;;;;;;;25.60;13.60;;;;;;;4.51;97.46;100896.77;107150;1254;101901;-79
2024/02/01 03:58:54;;;;;;;25.60;14.00;;;;;;;4.52;97.24;100895.63;106767;1254;99213;-80
2024/02/01 04:01:40;;;;;;;23.30;15.30;;;;;;;4.53;97.29;100885.95;106850;1258;98473;-79
2024/02/01 04:04:25;;;;;;;22.50;13.90;;;;;;;4.53;97.15;100876.68;106876;1254;98055;-79
2024/02/01 04:07:16;;;;;;;23.40;14.50;;;;;;;4.55;97.17;100872.11;107032;1254;97739;-80
2024/02/01 04:10:01;;;;;;;23.20;13.80;;;;;;;4.57;97.05;100864.54;106810;1254;102943;-78
2024/02/01 04:12:48;;;;;;;24.00;14.30;;;;;;;4.57;97.11;100861.16;106412;1255;99146;-80
2024/02/01 04:15:35;;;;;;;24.70;14.60;;;;;;;4.55;96.97;100858.84;106873;1254;97911;-79
2024/02/01 04:18:20;;;;;;;24.50;15.50;;;;;;;4.56;96.98;100856.86;107002;1258;97995;-80
2024/02/01 04:21:06;;;;;;;21.80;14.80;;;;;;;4.57;97.03;100852.86;106989;1254;97970;-80
2024/02/01 04:23:52;;;;;;;25.60;15.00;;;;;;;4.57;96.98;100846.89;107012;1253;102108;-80
2024/02/01 04:26:38;;;;;;;28.10;15.70;;;;;;;4.56;96.97;100852.56;106973;1255;99247;-81
2024/02/01 04:29:27;;;;;;;24.50;15.10;;;;;;;4.57;96.93;100843.35;106930;1254;97893;-80
2024/02/01 04:32:12;;;;;;;26.60;16.00;;;;;;;4.55;96.96;100839.91;106902;1256;97947;-81
2024/02/01 04:34:58;;;;;;;25.40;16.10;;;;;;;4.53;96.79;100840.84;106885;1254;97885;-78
2024/02/01 04:37:44;;;;;;;27.20;15.90;;;;;;;4.52;97.07;100838.06;106885;1254;101428;-79
2024/02/01 04:40:29;;;;;;;28.00;17.20;;;;;;;4.52;97.26;100831.80;106850;1254;99266;-80
2024/02/01 04:43:17;;;;;;;26.50;16.50;;;;;;;4.51;97.05;100828.89;106256;1255;97972;-79
2024/02/01 04:46:02;;;;;;;27.20;16.00;;;;;;;4.49;97.07;100823.89;106401;1258;97962;-80
2024/02/01 04:48:48;;;;;;;27.40;16.70;;;;;;;4.48;97.04;100820.46;106081;1259;98358;-78
2024/02/01 04:51:33;;;;;;;24.80;15.80;;;;;;;4.46;97.21;100814.42;106270;1255;102361;-81
2024/02/01 04:54:19;;;;;;;27.90;17.00;;;;;;;4.44;97.30;100805.97;107065;1254;99056;-80
2024/02/01 04:57:13;;;;;;;29.60;17.10;;;;;;;4.43;97.41;100798.16;107013;1254;97873;-80
2024/02/01 05:00:01;;;;;;;26.00;16.20;;;;;;;4.41;97.30;100791.44;106889;1255;97864;-81
2024/02/01 05:02:47;;;;;;;28.80;18.00;;;;;;;4.39;97.38;100787.73;106948;1254;97952;-80
2024/02/01 05:05:32;;;;;;;28.30;18.20;;;;;;;4.38;97.58;100783.95;106913;1254;101319;-79
2024/02/01 05:08:17;;;;;;;29.60;18.10;;;;;;;4.38;97.84;100780.42;106959;1254;99187;-79
2024/02/01 05:11:04;;;;;;;32.10;19.20;;;;;;;4.37;98.02;100779.98;106943;1257;97966;-80
2024/02/01 05:13:50;;;;;;;33.70;19.20;;;;;;;4.35;97.84;100774.67;106946;1254;97872;-79
2024/02/01 05:16:36;;;;;;;31.80;19.40;;;;;;;4.31;97.84;100771.87;106515;1254;98452;-80
2024/02/01 05:19:21;;;;;;;37.00;22.50;;;;;;;4.29;97.81;100768.88;106962;1258;101397;-79
2024/02/01 05:22:07;;;;;;;35.60;21.20;;;;;;;4.26;98.00;100762.44;106576;1258;99076;-79
2024/02/01 05:24:52;;;;;;;41.00;22.40;;;;;;;4.22;98.13;100765.23;106562;1254;98575;-79
2024/02/01 05:27:38;;;;;;;43.40;22.90;;;;;;;4.21;98.35;100766.41;106981;1254;98011;-80
2024/02/01 05:30:24;;;;;;;44.60;24.30;;;;;;;4.19;98.39;100764.12;107043;1254;97955;-79
2024/02/01 05:33:09;;;;;;;41.80;24.10;;;;;;;4.18;98.38;100763.91;106913;1254;101313;-79
2024/02/01 05:35:55;;;;;;;41.80;24.60;;;;;;;4.15;98.29;100766.31;106456;1254;99054;-81
2024/02/01 05:38:41;;;;;;;44.50;25.20;;;;;;;4.12;98.44;100768.55;107067;1254;98045;-80
2024/02/01 05:41:26;;;;;;;38.60;22.60;;;;;;;4.11;98.60;100767.89;106966;1255;97888;-80
2024/02/01 05:44:12;;;;;;;40.60;24.20;;;;;;;4.09;98.61;100766.31;106959;1254;98477;-80
2024/02/01 05:46:58;;;;;;;42.20;23.80;;;;;;;4.06;98.65;100763.38;106380;1254;102779;-79
2024/02/01 05:49:43;;;;;;;36.80;21.60;;;;;;;4.06;98.79;100760.07;106442;1254;100061;-79
2024/02/01 05:52:29;;;;;;;38.10;22.30;;;;;;;4.07;98.83;100762.95;105939;1254;97814;-78
2024/02/01 05:55:14;;;;;;;37.60;22.00;;;;;;;4.09;98.89;100764.02;106302;1254;98051;-79
2024/02/01 05:58:05;;;;;;;38.20;21.60;;;;;;;4.11;98.80;100761.59;106530;1254;97940;-80
2024/02/01 06:00:50;;;;;;;33.10;19.80;;;;;;;4.13;98.97;100758.92;106447;1255;103243;-78
2024/02/01 06:03:36;;;;;;;32.30;19.50;;;;;;;4.16;98.90;100760.40;106431;1254;99112;-79
2024/02/01 06:06:22;;;;;;;26.20;18.10;;;;;;;4.19;98.75;100759.17;106403;1258;97885;-78
2024/02/01 06:09:11;;;;;;;36.10;20.00;;;;;;;4.23;98.84;100757.63;106420;1255;97935;-79
2024/02/01 06:11:57;;;;;;;34.80;20.00;;;;;;;4.26;98.84;100761.21;106394;1254;97961;-78
2024/02/01 06:14:42;;;;;;;33.20;19.70;;;;;;;4.29;98.61;100756.66;106338;1256;101379;-79
2024/02/01 06:17:28;;;;;;;34.10;18.20;;;;;;;4.32;98.70;100754.27;106441;1258;100540;-79
2024/02/01 06:20:15;;;;;;;34.20;19.70;;;;;;;4.34;98.63;100752.67;106581;1255;98609;-78
2024/02/01 06:23:02;;;;;;;37.20;21.10;;;;;;;4.36;98.53;100754.20;106409;1259;98668;-79
2024/02/01 06:25:47;;;;;;;35.30;19.90;;;;;;;4.37;98.44;100751.25;106987;1254;98425;-78
2024/02/01 06:28:33;;;;;;;30.20;19.60;;;;;;;4.38;98.46;100750.16;106467;1254;101403;-78
2024/02/01 06:31:19;;;;;;;32.00;18.90;;;;;;;4.39;98.43;100752.54;106494;1254;100094;-78
2024/02/01 06:34:08;;;;;;;29.90;19.00;;;;;;;4.41;98.42;100749.17;106400;1254;99913;-78
2024/02/01 06:36:58;;;;;;;31.50;17.80;;;;;;;4.41;98.45;100748.11;106463;1260;97970;-79
2024/02/01 06:40:10;;;;;;;33.60;19.40;;;;;;;4.40;98.15;100743.92;108475;1254;95863;-80
2024/02/01 06:43:08;;;;;;;34.30;18.20;;;;;;;4.40;98.29;100740.02;106883;1254;102584;-79
2024/02/01 06:46:18;;;;;;;25.90;16.70;;;;;;;4.42;98.29;100741.83;107111;1254;99232;-79
2024/02/01 06:49:18;;;;;;;32.00;19.70;;;;;;;4.43;98.32;100733.98;107115;1253;99062;-80
2024/02/01 06:55:24;;;;;;;32.10;19.20;;;;;;;4.44;98.10;100732.38;106416;1254;97884;-79
2024/02/01 06:58:13;;;;;;;32.40;18.90;;;;;;;4.45;98.05;100727.38;106340;1258;101356;-79
2024/02/01 07:01:13;;;;;;;28.80;18.00;;;;;;;4.47;98.29;100726.33;106557;1255;99497;-79
2024/02/01 07:04:21;;;;;;;30.10;17.90;;;;;;;4.49;98.21;100723.66;106863;1253;98152;-79
2024/02/01 07:07:18;;;;;;;29.40;17.70;;;;;;;4.49;98.23;100720.59;106067;1254;97957;-79
2024/02/01 07:10:14;;;;;;;34.20;18.30;;;;;;;4.51;98.31;100716.76;106489;1258;98500;-78
2024/02/01 07:13:21;;;;;;;26.70;17.10;;;;;;;4.51;98.15;100713.15;106068;1256;102683;-80
2024/02/01 07:16:21;;;;;;;27.30;16.80;;;;;;;4.51;98.35;100710.16;106567;1258;99170;-79
2024/02/01 07:19:39;;;;;;;29.50;19.00;;;;;;;4.52;98.13;100709.33;107251;1253;97884;-80
2024/02/01 07:22:35;;;;;;;28.30;18.00;;;;;;;4.53;98.10;100710.02;107101;1256;97861;-80
2024/02/01 07:25:36;;;;;;;29.60;17.10;;;;;;;4.54;98.35;100709.24;107041;1256;97978;-78
2024/02/01 07:59:10;;;;;;;33.50;22.30;;;;;;;4.28;100.00;100734.98;106423;1256;101394;-79
2024/02/01 08:02:24;;;;;;;33.50;20.90;;;;;;;4.28;100.00;100732.74;106347;1255;99241;-78
2024/02/01 08:08:16;;;;;;;44.40;24.20;;;;;;;4.22;100.00;100740.58;106721;1260;97927;-79
2024/02/01 08:11:02;;;;;;;39.00;24.30;;;;;;;4.19;100.00;100736.25;106255;1256;98677;-79
2024/02/01 08:13:51;;;;;;;39.80;24.40;;;;;;;4.15;100.00;100738.73;106361;1254;101342;-79
2024/02/01 08:16:39;;;;;;;29.90;19.50;;;;;;;4.13;100.00;100741.70;105822;1254;100092;-82
2024/02/01 08:19:25;;;;;;;28.40;18.30;;;;;;;4.12;100.00;100743.60;106672;1254;99007;-85
2024/02/01 08:22:10;;;;;;;43.20;27.10;;;;;;;4.10;100.00;100740.98;106171;1255;97955;-84
2024/02/01 08:24:56;;;;;;;43.40;25.80;;;;;;;4.09;100.00;100744.05;106428;1258;98398;-83
2024/02/01 08:27:49;;;;;;;37.20;23.90;;;;;;;4.09;100.00;100746.72;106391;1254;101399;-82
2024/02/01 08:30:35;;;;;;;28.90;18.60;;;;;;;4.07;100.00;100749.91;106355;1259;99205;-82
2024/02/01 08:33:21;;;;;;;27.70;17.70;;;;;;;4.04;100.00;100751.59;106186;1254;98792;-84
2024/02/01 08:36:07;;;;;;;35.80;21.10;;;;;;;4.01;100.00;100750.11;106300;1260;98025;-87
2024/02/01 08:38:53;;;;;;;33.50;19.60;;;;;;;4.01;100.00;100753.86;106133;1258;97966;-83
2024/02/01 08:41:39;;;;;;;32.10;20.40;;;;;;;4.00;100.00;100759.37;106116;1257;101213;-75
2024/02/01 08:44:25;;;;;;;30.00;20.00;;;;;;;3.99;100.00;100758.28;105498;1257;99231;-76
2024/02/01 08:47:13;;;;;;;29.90;17.90;;;;;;;3.96;100.00;100758.15;105577;1256;97922;-76
2024/02/01 08:50:06;;;;;;;34.00;20.70;;;;;;;3.93;100.00;100756.31;108454;1254;95256;-84
2024/02/01 08:52:53;;;;;;;29.40;19.20;;;;;;;3.94;100.00;100751.34;108180;1256;95625;-84
2024/02/01 08:55:41;;;;;;;33.30;19.30;;;;;;;3.92;100.00;100745.31;106572;1253;103596;-84
2024/02/01 08:58:27;;;;;;;29.30;17.70;;;;;;;3.90;100.00;100750.75;108021;1258;99396;-83
2024/02/01 09:01:26;;;;;;;30.00;18.00;;;;;;;3.88;100.00;100752.69;106084;1254;97969;-84
2024/02/01 09:04:14;;;;;;;28.10;18.10;;;;;;;3.88;100.00;100754.50;106271;1258;98071;-81
2024/02/01 09:07:00;;;;;;;31.90;19.30;;;;;;;3.88;100.00;100759.02;106149;1254;98473;-82
2024/02/01 09:09:45;;;;;;;30.20;20.40;;;;;;;3.88;100.00;100756.38;106578;1254;102856;-80
2024/02/01 09:12:34;;;;;;;28.00;16.60;;;;;;;3.89;100.00;100751.36;106668;1253;99137;-79
2024/02/01 09:15:20;;;;;;;28.30;18.00;;;;;;;3.90;100.00;100756.90;105961;1258;98116;-78
2024/02/01 09:18:05;;;;;;;26.70;17.30;;;;;;;3.91;100.00;100758.23;105930;1256;95963;-80
2024/02/01 09:20:52;;;;;;;26.50;17.40;;;;;;;3.91;100.00;100756.84;105894;1258;98437;-79
2024/02/01 09:23:38;;;;;;;27.10;17.50;;;;;;;3.91;100.00;100760.25;106233;1254;101393;-82
2024/02/01 09:26:23;;;;;;;31.30;18.40;;;;;;;3.90;100.00;100759.55;106403;1256;99886;-81
2024/02/01 09:29:11;;;;;;;44.70;23.10;;;;;;;3.91;100.00;100757.41;106464;1253;99267;-81
2024/02/01 09:31:56;;;;;;;32.90;21.10;;;;;;;3.90;100.00;100755.66;106377;1255;97971;-81
2024/02/01 09:34:42;;;;;;;31.10;20.30;;;;;;;3.92;100.00;100749.84;106295;1258;98499;-82
2024/02/01 09:37:28;;;;;;;26.10;18.50;;;;;;;3.94;100.00;100750.55;106351;1254;102091;-81
2024/02/01 09:40:14;;;;;;;30.90;18.40;;;;;;;3.96;100.00;100749.66;106683;1258;100579;-80
2024/02/01 09:43:02;;;;;;;28.20;17.10;;;;;;;3.99;100.00;100751.95;106588;1254;97931;-80
2024/02/01 09:45:52;;;;;;;24.50;15.40;;;;;;;4.00;100.00;100752.71;106379;1254;97927;-82
2024/02/01 09:48:39;;;;;;;26.20;18.30;;;;;;;4.01;100.00;100750.86;106274;1261;98051;-77
2024/02/01 09:51:26;;;;;;;27.30;16.70;;;;;;;4.02;100.00;100751.80;105816;1254;101419;-79
2024/02/01 09:54:13;;;;;;;27.60;16.70;;;;;;;4.01;100.00;100758.58;105921;1254;100349;-79
2024/02/01 09:56:59;;;;;;;28.70;17.90;;;;;;;4.01;100.00;100761.60;105710;1255;97972;-77
2024/02/01 09:59:45;;;;;;;40.30;26.20;;;;;;;4.03;100.00;100760.73;105813;1258;97903;-79
2024/02/01 10:02:31;;;;;;;26.40;17.10;;;;;;;4.03;100.00;100756.85;105972;1254;100681;-77
2024/02/01 10:05:17;;;;;;;21.30;15.80;;;;;;;4.04;100.00;100750.42;105849;1260;101388;-83
2024/02/01 10:08:14;;;;;;;25.90;16.80;;;;;;;4.06;100.00;100750.75;106352;1256;99364;-84
2024/02/01 10:11:03;;;;;;;26.30;18.70;;;;;;;4.08;100.00;100748.96;106334;1261;97875;-84
2024/02/01 10:13:49;;;;;;;24.50;16.50;;;;;;;4.09;100.00;100747.39;106447;1254;98472;-83
2024/02/01 10:16:35;;;;;;;22.50;15.90;;;;;;;4.11;100.00;100746.02;106067;1256;97930;-81
2024/02/01 10:19:21;;;;;;;22.00;16.30;;;;;;;4.13;100.00;100745.46;106335;1253;102089;-82
2024/02/01 10:22:08;;;;;;;28.90;19.60;;;;;;;4.14;100.00;100746.25;106498;1256;100491;-81
2024/02/01 10:24:56;;;;;;;31.60;21.00;;;;;;;4.16;100.00;100748.92;106475;1260;97971;-81
2024/02/01 10:27:42;;;;;;;41.20;24.80;;;;;;;4.17;100.00;100748.42;106536;1256;98548;-81
2024/02/01 10:30:28;;;;;;;39.30;25.80;;;;;;;4.18;100.00;100742.91;106746;1260;97856;-80
2024/02/01 10:33:26;;;;;;;32.90;22.80;;;;;;;4.19;100.00;100746.88;106808;1255;101414;-80
2024/02/01 10:36:13;;;;;;;33.20;20.50;;;;;;;4.20;100.00;100744.96;107452;1258;99856;-80
2024/02/01 10:39:00;;;;;;;23.90;17.80;;;;;;;4.20;100.00;100746.88;106438;1256;98047;-81
2024/02/01 10:41:56;;;;;;;29.70;19.70;;;;;;;4.21;100.00;100744.15;106429;1261;97954;-81
2024/02/01 10:44:44;;;;;;;29.30;19.20;;;;;;;4.23;100.00;100744.70;106210;1254;98264;-83
2024/02/01 10:47:35;;;;;;;33.80;21.80;;;;;;;4.25;100.00;100743.07;106360;1256;101474;-82
2024/02/01 10:50:20;;;;;;;21.70;15.70;;;;;;;4.26;100.00;100739.41;106538;1256;99178;-83
2024/02/01 10:53:08;;;;;;;34.50;21.80;;;;;;;4.28;100.00;100741.05;106249;1256;99228;-82
2024/02/01 10:55:55;;;;;;;35.50;21.20;;;;;;;4.30;100.00;100733.27;106474;1256;97949;-83
2024/02/01 10:58:44;;;;;;;38.10;25.10;;;;;;;4.32;100.00;100720.84;106351;1254;97954;-84
2024/02/01 11:01:29;;;;;;;31.60;19.80;;;;;;;4.35;100.00;100717.70;106308;1258;102756;-81
2024/02/01 11:04:15;;;;;;;76.20;42.30;;;;;;;4.37;100.00;100715.59;106839;1255;99062;-86
2024/02/01 11:07:01;;;;;;;59.50;35.00;;;;;;;4.42;100.00;100719.91;106777;1255;98451;-81
2024/02/01 11:09:49;;;;;;;30.80;20.60;;;;;;;4.48;100.00;100719.52;106454;1257;99234;-80
2024/02/01 11:12:38;;;;;;;41.50;25.40;;;;;;;4.54;100.00;100719.25;106785;1254;98495;-81
2024/02/01 11:15:25;;;;;;;48.80;30.10;;;;;;;4.61;100.00;100721.08;106235;1254;101379;-81
2024/02/01 11:18:11;;;;;;;27.00;20.50;;;;;;;4.69;100.00;100716.71;106566;1254;99917;-83
2024/02/01 11:21:02;;;;;;;29.70;20.10;;;;;;;4.76;100.00;100716.27;106557;1259;97963;-78
2024/02/01 11:23:47;;;;;;;46.10;28.50;;;;;;;4.83;100.00;100717.88;105929;1256;97958;-77
2024/02/01 11:26:41;;;;;;;41.60;29.30;;;;;;;4.89;100.00;100711.45;106195;1254;98554;-85
2024/02/01 11:29:38;;;;;;;36.50;22.40;;;;;;;4.95;100.00;100714.05;106516;1257;102724;-83
2024/02/01 11:32:24;;;;;;;53.20;34.90;;;;;;;5.02;100.00;100714.07;106950;1254;99709;-81
2024/02/01 11:35:10;;;;;;;38.10;25.00;;;;;;;5.08;100.00;100709.59;107021;1254;97966;-80
2024/02/01 11:38:04;;;;;;;26.70;20.30;;;;;;;5.13;100.00;100710.70;107004;1256;97938;-82
2024/02/01 11:40:50;;;;;;;23.80;16.10;;;;;;;5.19;100.00;100716.67;106519;1254;98561;-82
2024/02/01 11:43:38;;;;;;;19.70;14.40;;;;;;;5.23;100.00;100713.59;106597;1254;101375;-81
2024/02/01 11:46:25;;;;;;;16.10;12.00;;;;;;;5.26;100.00;100708.65;106439;1253;99210;-85
2024/02/01 11:49:22;;;;;;;22.10;14.20;;;;;;;5.32;100.00;100704.88;106305;1254;97973;-84
2024/02/01 11:52:43;;;;;;;16.60;11.20;;;;;;;5.35;100.00;100702.27;106291;1259;98534;-81
2024/02/01 11:55:29;;;;;;;21.10;13.30;;;;;;;5.36;100.00;100704.54;106331;1258;97810;-81
2024/02/01 11:58:17;;;;;;;22.20;13.30;;;;;;;5.38;100.00;100704.48;106334;1256;102718;-80
2024/02/01 12:01:02;;;;;;;27.60;17.60;;;;;;;5.41;100.00;100700.83;106408;1254;100329;-81
2024/02/01 12:03:49;;;;;;;21.70;14.70;;;;;;;5.44;100.00;100704.76;106361;1257;99070;-82
2024/02/01 12:06:35;;;;;;;21.30;13.80;;;;;;;5.47;100.00;100703.73;106303;1258;97918;-82
2024/02/01 12:09:21;;;;;;;14.70;10.20;;;;;;;5.47;100.00;100702.83;106676;1254;97888;-81
2024/02/01 12:12:08;;;;;;;29.30;17.20;;;;;;;5.47;100.00;100703.42;106702;1256;103096;-82
2024/02/01 12:14:54;;;;;;;19.70;12.90;;;;;;;5.47;100.00;100708.91;106626;1253;99132;-82
2024/02/01 12:17:50;;;;;;;24.20;15.80;;;;;;;5.48;100.00;100712.17;106762;1256;98963;-81
2024/02/01 12:20:36;;;;;;;20.70;13.20;;;;;;;5.51;100.00;100710.14;107443;1256;97869;-80
2024/02/01 12:23:22;;;;;;;21.90;11.20;;;;;;;5.53;100.00;100708.30;106618;1252;98405;-83
2024/02/01 12:26:07;;;;;;;16.60;10.20;;;;;;;5.56;100.00;100710.52;106680;1252;102676;-82
2024/02/01 12:28:54;;;;;;;13.70;9.90;;;;;;;5.61;100.00;100707.73;106578;1254;99381;-82
2024/02/01 12:31:40;;;;;;;13.30;8.20;;;;;;;5.65;100.00;100707.05;106479;1259;98997;-81
2024/02/01 12:34:26;;;;;;;13.10;8.70;;;;;;;5.71;100.00;100707.39;106963;1258;97940;-82
2024/02/01 12:37:12;;;;;;;11.60;7.90;;;;;;;5.78;100.00;100712.73;107036;1254;99026;-82
2024/02/01 12:39:58;;;;;;;16.80;9.50;;;;;;;5.83;100.00;100712.01;106667;1254;102546;-84
2024/02/01 12:42:46;;;;;;;12.70;8.30;;;;;;;5.85;100.00;100710.58;106293;1257;99277;-84
2024/02/01 12:45:32;;;;;;;12.20;8.10;;;;;;;5.87;100.00;100717.48;106620;1254;98287;-82
2024/02/01 12:48:17;;;;;;;10.70;7.60;;;;;;;5.89;100.00;100718.38;106394;1254;97956;-82
2024/02/01 12:51:05;;;;;;;11.00;7.10;;;;;;;5.91;100.00;100716.02;106402;1254;97953;-81
2024/02/01 12:53:51;;;;;;;16.20;8.30;;;;;;;5.95;100.00;100715.24;106492;1253;103056;-79
2024/02/01 12:56:36;;;;;;;17.10;8.30;;;;;;;5.98;100.00;100719.39;106090;1256;99238;-84
2024/02/01 12:59:23;;;;;;;11.10;6.80;;;;;;;5.97;100.00;100721.90;106437;1257;99053;-83
2024/02/01 13:02:10;;;;;;;13.70;6.20;;;;;;;5.98;100.00;100722.01;106777;1259;98046;-85
2024/02/01 13:04:56;;;;;;;10.60;7.10;;;;;;;6.01;100.00;100726.35;106687;1257;96579;-79
2024/02/01 13:07:42;;;;;;;11.60;6.60;;;;;;;6.04;100.00;100730.64;107245;1254;101386;-80
2024/02/01 13:10:28;;;;;;;10.70;6.40;;;;;;;6.07;100.00;100724.51;107158;1256;99118;-80
2024/02/01 13:13:13;;;;;;;11.80;7.10;;;;;;;6.09;100.00;100726.04;106969;1254;97950;-81